Terminal Aerodrome Forecast
Issued by NWS

Home | Current Version | Previous Version | Text Only | Print | Product List | Glossary On
Versions: 1 2 3 4 5 6 7 8 9 10 11 12 13 14 15 16 17 18 19 20
000
FTUS45 KFGZ 310100 AAA
TAFGCN
TAF AMD
KGCN 310147Z 3102/3124 08007KT 6SM BR SCT023 OVC029
      TEMPO 3102/3104 3SM -RA BR OVC010
     FM310400 05005KT 3SM -SHRA OVC010
     FM310700 VRB04KT 1SM -SHRA BR OVC005
     FM311600 VRB05KT 6SM -SHRA BKN025=

USA.gov is the U.S. government's official web portal to all federal, state and local government web resources and services.